Time;durP1;ratioP1;P1;durP2;ratioP2;P2;SDS_P1;SDS_P2;PMS_P1;PMS_P2;Temp;Humidity;BMP_temperature;BMP_pressure;BME280_temperature;BME280_humidity;BME280_pressure;Samples;Min_cycle;Max_cycle;Signal;HPM_P1;HPM_P2
2023/10/31 00:00:22;;;;;;;16.40;8.90;;;;;;;16.52;56.67;98213.44;4488167;31;34067;-89
2023/10/31 00:02:50;;;;;;;12.95;8.77;;;;;;;16.51;56.83;98197.75;4498229;31;34095;-90
2023/10/31 00:05:18;;;;;;;11.45;8.23;;;;;;;16.50;57.00;98209.13;4498531;31;33513;-90
2023/10/31 00:07:48;;;;;;;14.07;8.43;;;;;;;16.64;56.75;98200.91;4488241;31;33755;-90
2023/10/31 00:10:16;;;;;;;14.82;8.82;;;;;;;16.67;56.32;98209.53;4498535;31;33726;-91
2023/10/31 00:12:43;;;;;;;14.30;7.97;;;;;;;16.47;57.09;98199.59;4482923;31;33976;-90
2023/10/31 00:15:11;;;;;;;14.07;9.38;;;;;;;16.53;57.29;98211.66;4494643;31;33386;-91
2023/10/31 00:17:39;;;;;;;13.88;8.10;;;;;;;16.57;56.89;98209.81;4472268;31;32733;-91
2023/10/31 00:20:07;;;;;;;15.02;8.95;;;;;;;16.50;57.37;98204.75;4495795;31;34859;-91
2023/10/31 00:22:35;;;;;;;13.60;8.77;;;;;;;16.53;56.71;98201.19;4497785;31;33599;-90
2023/10/31 00:25:03;;;;;;;19.02;9.43;;;;;;;16.83;56.19;98202.16;4498462;31;33401;-88
2023/10/31 00:27:30;;;;;;;15.07;8.48;;;;;;;16.57;57.18;98191.50;4498315;31;34817;-91
2023/10/31 00:29:58;;;;;;;17.58;8.25;;;;;;;16.66;56.93;98189.47;4498295;31;34326;-89
2023/10/31 00:32:25;;;;;;;12.20;7.97;;;;;;;16.58;58.60;98187.97;4497598;31;33293;-89
2023/10/31 00:34:53;;;;;;;12.88;8.77;;;;;;;16.74;57.61;98179.72;4498496;31;33314;-91
2023/10/31 00:37:20;;;;;;;14.45;8.25;;;;;;;16.63;57.35;98173.88;4494171;31;33057;-90
2023/10/31 00:39:48;;;;;;;14.27;8.07;;;;;;;16.39;56.46;98185.84;4495609;31;34871;-91
2023/10/31 00:42:17;;;;;;;15.10;8.85;;;;;;;16.50;57.14;98168.12;4498352;31;33953;-91
2023/10/31 00:44:44;;;;;;;17.33;9.02;;;;;;;16.49;57.64;98169.03;4500037;31;32931;-91
2023/10/31 00:47:12;;;;;;;16.77;9.15;;;;;;;16.40;57.66;98165.78;4496076;31;33721;-91
2023/10/31 00:49:39;;;;;;;14.77;9.02;;;;;;;16.41;57.84;98167.53;4493218;31;33565;-90
2023/10/31 00:52:07;;;;;;;15.10;8.30;;;;;;;16.20;57.57;98153.25;4498100;31;33493;-91
2023/10/31 00:54:35;;;;;;;16.23;9.48;;;;;;;16.11;57.84;98145.66;4487480;31;34710;-90
2023/10/31 00:57:03;;;;;;;14.85;8.25;;;;;;;16.12;57.26;98139.50;4498343;31;34541;-90
2023/10/31 00:59:30;;;;;;;16.08;9.68;;;;;;;16.15;58.24;98142.91;4495932;31;34022;-91
2023/10/31 01:01:58;;;;;;;15.27;8.73;;;;;;;16.13;58.18;98136.84;4494304;31;33479;-89
2023/10/31 01:04:26;;;;;;;13.07;8.43;;;;;;;16.09;58.07;98136.97;4477913;31;33411;-89
2023/10/31 01:06:53;;;;;;;16.30;9.60;;;;;;;16.18;56.99;98124.53;4493131;31;34442;-89
2023/10/31 01:09:21;;;;;;;14.02;8.90;;;;;;;16.21;56.43;98128.78;4499025;31;33800;-90
2023/10/31 01:11:48;;;;;;;16.33;8.68;;;;;;;16.15;56.93;98137.69;4483835;31;33546;-90
2023/10/31 01:14:16;;;;;;;15.77;9.45;;;;;;;15.98;55.60;98118.94;4496278;31;33289;-88
2023/10/31 01:16:43;;;;;;;15.40;9.57;;;;;;;16.00;55.87;98114.53;4489571;31;34597;-90
2023/10/31 01:19:11;;;;;;;15.18;8.85;;;;;;;16.04;56.23;98110.94;4484832;31;33803;-89
2023/10/31 01:21:39;;;;;;;15.02;8.73;;;;;;;16.07;57.81;98115.25;4489021;31;34509;-88
2023/10/31 01:24:07;;;;;;;17.17;9.38;;;;;;;16.12;57.57;98108.97;4499257;31;33026;-88
2023/10/31 01:26:35;;;;;;;18.48;9.00;;;;;;;16.23;57.37;98103.47;4498243;31;34425;-88
2023/10/31 01:29:03;;;;;;;19.58;10.00;;;;;;;16.14;57.90;98108.94;4493176;31;33823;-88
2023/10/31 01:31:32;;;;;;;16.77;8.73;;;;;;;16.30;57.47;98097.19;4495505;31;33543;-87
2023/10/31 01:34:05;;;;;;;17.92;9.10;;;;;;;16.28;57.39;98096.34;4487585;31;33033;-87
2023/10/31 01:36:33;;;;;;;17.02;8.52;;;;;;;16.12;57.76;98090.69;4498180;31;34325;-89
2023/10/31 01:39:01;;;;;;;17.40;9.13;;;;;;;16.16;58.38;98102.78;4499532;31;33720;-91
2023/10/31 01:41:29;;;;;;;22.23;8.43;;;;;;;16.19;58.02;98084.38;4497908;31;34613;-90
2023/10/31 01:43:57;;;;;;;14.85;9.10;;;;;;;16.09;58.47;98087.28;4499510;31;34315;-91
2023/10/31 01:46:24;;;;;;;17.12;9.35;;;;;;;16.13;58.53;98079.31;4485957;31;33471;-92
2023/10/31 01:48:53;;;;;;;16.17;9.77;;;;;;;15.96;58.30;98071.94;4498062;31;33779;-90
2023/10/31 01:51:21;;;;;;;18.87;10.60;;;;;;;16.13;58.61;98088.91;4496677;31;34276;-89
2023/10/31 01:53:49;;;;;;;16.55;10.45;;;;;;;16.22;57.46;98073.84;4481517;31;33398;-91
2023/10/31 01:56:16;;;;;;;17.30;9.27;;;;;;;16.17;57.45;98072.25;4493973;31;33982;-91
2023/10/31 01:58:46;;;;;;;15.10;9.43;;;;;;;16.19;58.39;98068.69;4489312;31;33870;-91
2023/10/31 02:01:13;;;;;;;15.43;9.95;;;;;;;16.11;58.62;98073.28;4495881;31;34474;-89
2023/10/31 02:03:42;;;;;;;15.43;9.43;;;;;;;16.21;57.56;98073.88;4498732;31;32609;-91
2023/10/31 02:06:09;;;;;;;20.23;9.77;;;;;;;16.09;57.47;98071.59;4485041;31;33981;-90
2023/10/31 02:08:37;;;;;;;17.05;9.77;;;;;;;16.01;56.67;98061.34;4496066;31;34898;-88
2023/10/31 02:11:05;;;;;;;15.25;8.77;;;;;;;16.04;56.49;98058.66;4496923;31;34637;-91
2023/10/31 02:13:33;;;;;;;13.73;8.93;;;;;;;16.01;56.16;98048.28;4487771;31;33587;-88
2023/10/31 02:16:01;;;;;;;13.88;8.63;;;;;;;15.98;57.50;98048.34;4498495;31;32081;-90
2023/10/31 02:18:29;;;;;;;20.35;10.38;;;;;;;16.16;56.79;98041.78;4498642;31;33267;-89
2023/10/31 02:20:58;;;;;;;14.43;8.52;;;;;;;15.78;56.57;98030.59;4498071;31;33737;-90
2023/10/31 02:23:26;;;;;;;15.10;9.65;;;;;;;15.91;57.97;98041.56;4492658;31;33674;-89
2023/10/31 02:25:55;;;;;;;16.83;9.30;;;;;;;16.10;56.78;98041.94;4498848;31;34700;-91
2023/10/31 02:28:27;;;;;;;16.27;9.45;;;;;;;15.97;57.45;98030.97;4498678;31;33723;-90
2023/10/31 02:30:55;;;;;;;17.45;9.32;;;;;;;16.14;56.64;98043.56;4495697;31;34057;-88
2023/10/31 02:33:41;;;;;;;14.43;8.77;;;;;;;15.94;56.99;98044.13;4498355;31;34433;-90
2023/10/31 02:36:09;;;;;;;14.02;8.25;;;;;;;15.98;57.05;98038.75;4489386;31;33829;-88
2023/10/31 02:38:36;;;;;;;18.98;9.60;;;;;;;15.93;57.34;98037.19;4483625;32;34147;-89
2023/10/31 02:41:04;;;;;;;16.33;8.90;;;;;;;15.99;56.58;98040.50;4482025;32;33912;-88
2023/10/31 02:43:31;;;;;;;15.85;8.93;;;;;;;15.83;56.96;98028.72;4497368;31;32695;-87
2023/10/31 02:45:59;;;;;;;13.85;8.82;;;;;;;15.69;57.92;98039.53;4499330;31;34639;-89
2023/10/31 02:48:27;;;;;;;14.87;9.75;;;;;;;16.06;56.03;98035.94;4499490;31;33775;-87
2023/10/31 02:50:55;;;;;;;16.08;9.63;;;;;;;15.89;55.52;98031.16;4499248;31;33850;-86
2023/10/31 02:53:22;;;;;;;15.65;9.13;;;;;;;15.95;55.79;98044.09;4498852;31;33137;-88
2023/10/31 02:55:50;;;;;;;17.27;8.60;;;;;;;16.29;55.14;98040.56;4499056;31;34547;-88
2023/10/31 02:58:17;;;;;;;14.32;8.63;;;;;;;16.14;55.83;98047.06;4497231;31;32854;-88
2023/10/31 03:00:45;;;;;;;15.30;8.82;;;;;;;16.20;56.37;98043.41;4499370;31;33580;-88
2023/10/31 03:03:12;;;;;;;13.30;8.35;;;;;;;16.05;55.37;98032.47;4489682;31;33297;-86
2023/10/31 03:05:40;;;;;;;12.88;8.73;;;;;;;16.32;56.58;98039.59;4498782;31;33716;-87
2023/10/31 03:08:10;;;;;;;14.38;8.55;;;;;;;16.33;55.68;98036.94;4498334;31;34022;-88
2023/10/31 03:10:41;;;;;;;14.98;9.23;;;;;;;16.32;56.07;98036.97;4483618;31;33985;-89
2023/10/31 03:13:09;;;;;;;16.83;8.45;;;;;;;16.25;55.10;98031.03;4498215;31;33607;-88
2023/10/31 03:15:36;;;;;;;12.88;7.80;;;;;;;16.36;54.66;98043.81;4483637;31;33721;-87
2023/10/31 03:18:04;;;;;;;13.77;8.38;;;;;;;16.31;55.03;98041.34;4482546;31;33662;-88
2023/10/31 03:20:31;;;;;;;15.82;8.68;;;;;;;16.26;56.13;98035.41;4489395;31;33724;-88
2023/10/31 03:22:59;;;;;;;13.98;8.57;;;;;;;15.97;55.78;98037.03;4484940;31;34178;-88
2023/10/31 03:25:26;;;;;;;17.65;8.70;;;;;;;16.25;55.84;98039.78;4496938;31;33522;-87
2023/10/31 03:27:54;;;;;;;16.70;9.13;;;;;;;16.26;55.81;98048.47;4498507;31;34956;-89
2023/10/31 03:30:21;;;;;;;13.40;8.15;;;;;;;16.32;56.18;98057.91;4497403;31;33767;-85
2023/10/31 03:32:49;;;;;;;17.62;8.43;;;;;;;16.38;56.72;98063.81;4491675;31;33476;-88
2023/10/31 03:35:17;;;;;;;13.93;8.90;;;;;;;16.36;55.83;98063.00;4490031;31;34660;-89
2023/10/31 03:37:44;;;;;;;12.93;7.90;;;;;;;16.23;57.95;98070.34;4499092;31;33971;-88
2023/10/31 03:40:12;;;;;;;13.30;7.55;;;;;;;16.10;56.99;98066.34;4496737;31;33168;-85
2023/10/31 03:42:40;;;;;;;12.65;8.30;;;;;;;16.23;56.76;98077.31;4494309;31;33384;-87
2023/10/31 03:45:08;;;;;;;13.55;7.53;;;;;;;16.24;57.23;98081.66;4498197;31;34684;-86
2023/10/31 03:47:35;;;;;;;12.13;7.45;;;;;;;16.13;58.93;98086.31;4498173;31;33719;-87
2023/10/31 03:50:04;;;;;;;14.25;7.62;;;;;;;15.22;58.75;98058.94;4497126;31;33887;-87
2023/10/31 03:52:31;;;;;;;14.52;7.90;;;;;;;15.76;58.82;98058.53;4497657;31;34163;-89
2023/10/31 03:54:59;;;;;;;14.40;8.60;;;;;;;15.65;60.41;98065.75;4498068;31;33591;-86
2023/10/31 03:57:26;;;;;;;11.90;7.15;;;;;;;15.89;60.49;98075.59;4498161;31;34602;-89
2023/10/31 03:59:54;;;;;;;13.82;7.00;;;;;;;15.83;60.68;98057.47;4497682;31;34187;-88
2023/10/31 04:02:22;;;;;;;14.68;7.50;;;;;;;15.61;59.20;98069.31;4490180;31;34042;-89
2023/10/31 04:04:50;;;;;;;13.43;7.15;;;;;;;15.56;59.69;98080.75;4490976;31;34677;-89
2023/10/31 04:07:17;;;;;;;13.73;8.10;;;;;;;15.60;58.71;98067.63;4496215;31;34129;-89
2023/10/31 04:09:44;;;;;;;16.10;8.57;;;;;;;15.81;58.55;98069.72;4495431;31;34728;-89
2023/10/31 04:12:12;;;;;;;13.85;7.97;;;;;;;15.46;61.35;98071.44;4498712;31;33381;-87
2023/10/31 04:14:40;;;;;;;16.70;8.13;;;;;;;15.50;60.97;98057.41;4482665;31;33432;-89
2023/10/31 04:17:07;;;;;;;17.55;9.02;;;;;;;15.73;60.72;98069.91;4487419;31;33418;-88
2023/10/31 04:19:36;;;;;;;12.73;8.00;;;;;;;15.91;60.46;98058.16;4483823;31;33544;-89
2023/10/31 04:22:04;;;;;;;16.30;7.70;;;;;;;15.77;63.18;98060.25;4482499;31;33175;-86
2023/10/31 04:24:31;;;;;;;14.52;7.72;;;;;;;15.83;62.22;98041.78;4498211;31;34325;-88
2023/10/31 04:26:59;;;;;;;13.25;7.03;;;;;;;15.54;64.66;98045.97;4498527;31;33830;-88
2023/10/31 04:29:26;;;;;;;12.65;7.40;;;;;;;15.72;63.38;98046.41;4498135;31;33946;-89
2023/10/31 04:31:54;;;;;;;12.13;7.95;;;;;;;15.77;63.53;98055.88;4498181;31;33070;-88
2023/10/31 04:34:22;;;;;;;13.82;8.18;;;;;;;15.81;63.69;98040.97;4497990;31;33455;-87
2023/10/31 04:36:49;;;;;;;12.15;7.12;;;;;;;15.74;63.06;98044.66;4496515;31;34940;-90
2023/10/31 04:39:17;;;;;;;12.45;7.93;;;;;;;15.79;63.77;98037.53;4496018;31;34698;-88
2023/10/31 04:41:44;;;;;;;14.18;7.65;;;;;;;15.61;63.80;98035.34;4496599;31;34172;-88
2023/10/31 04:44:12;;;;;;;12.68;7.85;;;;;;;15.57;61.63;98027.63;4481779;31;33117;-88
2023/10/31 04:46:39;;;;;;;14.13;8.65;;;;;;;15.40;61.70;98027.19;4483893;31;33584;-87
2023/10/31 04:49:08;;;;;;;12.73;7.40;;;;;;;15.41;61.26;98023.66;4496078;31;33285;-86
2023/10/31 04:51:36;;;;;;;14.82;7.72;;;;;;;15.52;60.14;98019.03;4496325;31;34055;-89
2023/10/31 04:54:04;;;;;;;10.70;6.97;;;;;;;15.41;60.70;98009.75;4497303;31;34039;-87
2023/10/31 04:56:33;;;;;;;14.50;6.95;;;;;;;15.52;62.34;98019.03;4494612;31;34123;-88
2023/10/31 04:59:00;;;;;;;12.98;7.18;;;;;;;15.37;62.91;98008.97;4495248;31;34055;-89
2023/10/31 05:01:28;;;;;;;12.37;7.03;;;;;;;15.44;62.17;97997.47;4493644;31;33468;-88
2023/10/31 05:03:55;;;;;;;14.13;7.85;;;;;;;15.53;58.38;97992.03;4497213;31;33861;-89
2023/10/31 05:06:37;;;;;;;15.50;8.63;;;;;;;15.67;59.20;97999.53;4497228;31;34036;-89
2023/10/31 05:09:05;;;;;;;12.82;7.97;;;;;;;15.66;59.05;97979.53;4495160;31;33787;-86
2023/10/31 05:11:33;;;;;;;15.65;6.55;;;;;;;15.74;56.94;97963.63;4496412;31;33095;-86
2023/10/31 05:14:00;;;;;;;12.45;6.93;;;;;;;15.73;56.50;97956.72;4494212;31;33736;-87
2023/10/31 05:16:28;;;;;;;11.85;6.18;;;;;;;15.86;56.82;97957.22;4495648;31;32774;-88
2023/10/31 05:18:59;;;;;;;14.00;6.87;;;;;;;15.87;56.02;97962.38;4497701;31;33419;-88
2023/10/31 05:21:26;;;;;;;11.18;6.45;;;;;;;15.95;55.16;97965.66;4497318;31;31920;-88
2023/10/31 05:23:54;;;;;;;12.32;6.05;;;;;;;15.89;55.25;97989.34;4499156;31;33613;-87
2023/10/31 05:26:22;;;;;;;10.70;6.20;;;;;;;16.04;54.29;98004.63;4497047;31;33980;-88
2023/10/31 05:28:49;;;;;;;14.95;7.18;;;;;;;15.66;55.48;97999.56;4498668;31;33918;-89
2023/10/31 05:31:17;;;;;;;9.73;5.55;;;;;;;16.02;55.36;98011.66;4496948;31;33528;-87
2023/10/31 05:33:44;;;;;;;11.60;6.62;;;;;;;16.05;54.93;98008.09;4499101;31;33981;-88
2023/10/31 05:36:23;;;;;;;12.90;6.93;;;;;;;15.82;57.54;98006.09;4498883;31;34588;-87
2023/10/31 05:38:51;;;;;;;11.30;6.32;;;;;;;15.95;58.46;98017.94;4484802;31;33948;-87
2023/10/31 05:41:18;;;;;;;15.00;7.25;;;;;;;15.60;58.93;98016.22;4489020;31;33161;-88
2023/10/31 05:43:46;;;;;;;11.68;5.82;;;;;;;15.71;58.14;97992.47;4499876;31;33135;-87
2023/10/31 05:46:14;;;;;;;13.10;6.35;;;;;;;15.56;58.94;97999.75;4497738;31;34120;-88
2023/10/31 05:48:44;;;;;;;11.00;5.68;;;;;;;15.51;58.86;97996.41;4498829;31;33720;-87
2023/10/31 05:51:18;;;;;;;10.50;5.85;;;;;;;15.44;58.93;97987.03;4483813;31;33593;-87
2023/10/31 05:53:48;;;;;;;13.00;6.60;;;;;;;15.32;59.62;97980.38;4490750;31;34461;-86
2023/10/31 05:56:16;;;;;;;9.65;5.82;;;;;;;15.15;59.86;97984.28;4491751;31;33848;-87
2023/10/31 05:58:44;;;;;;;11.50;5.60;;;;;;;15.21;59.99;97979.78;4494191;31;33530;-86
2023/10/31 06:01:11;;;;;;;10.20;6.32;;;;;;;15.00;60.57;97989.00;4494444;31;33556;-88
2023/10/31 06:03:43;;;;;;;12.55;5.60;;;;;;;15.24;60.29;97986.69;4495916;31;34856;-86
2023/10/31 06:06:12;;;;;;;10.57;5.62;;;;;;;15.17;60.09;97970.31;4483194;31;34673;-87
2023/10/31 06:08:41;;;;;;;12.05;5.95;;;;;;;15.28;59.96;97970.03;4486654;31;33850;-86
2023/10/31 06:11:09;;;;;;;12.20;6.05;;;;;;;15.05;60.51;97968.00;4484654;31;32701;-87
2023/10/31 06:13:36;;;;;;;9.23;5.40;;;;;;;15.12;60.32;97969.56;4498897;31;34368;-87
2023/10/31 06:16:05;;;;;;;13.65;5.78;;;;;;;15.20;59.84;97970.25;4498811;31;34579;-88
2023/10/31 06:18:32;;;;;;;8.85;5.70;;;;;;;15.27;60.21;97986.63;4499168;31;34561;-87
2023/10/31 06:21:00;;;;;;;11.90;6.15;;;;;;;15.41;59.59;97989.72;4497928;31;32186;-87
2023/10/31 06:23:27;;;;;;;13.18;6.03;;;;;;;15.52;59.91;97997.28;4497775;31;34088;-87
2023/10/31 06:25:58;;;;;;;9.93;5.80;;;;;;;15.63;59.06;97997.00;4499322;31;33783;-88
2023/10/31 06:28:26;;;;;;;10.30;5.93;;;;;;;15.65;59.30;98003.06;4498878;31;34616;-88
2023/10/31 06:30:54;;;;;;;11.27;6.15;;;;;;;15.78;59.39;98007.06;4499031;31;33059;-88
2023/10/31 06:33:21;;;;;;;9.73;5.60;;;;;;;15.86;59.62;97999.03;4498622;31;33890;-87
2023/10/31 06:35:48;;;;;;;12.02;5.90;;;;;;;15.95;59.06;97997.03;4499302;31;33703;-87
2023/10/31 06:38:16;;;;;;;8.85;5.55;;;;;;;15.80;62.17;97993.09;4498128;31;34874;-88
2023/10/31 06:40:44;;;;;;;10.63;5.62;;;;;;;15.91;61.50;97979.72;4497413;31;33339;-88
2023/10/31 06:43:12;;;;;;;11.00;6.00;;;;;;;15.70;62.89;97991.59;4497571;31;34535;-87
2023/10/31 06:45:39;;;;;;;11.23;5.68;;;;;;;15.89;60.59;97989.34;4498461;31;33848;-88
2023/10/31 06:48:09;;;;;;;9.57;4.47;;;;;;;15.97;59.93;98004.81;4497935;31;33824;-87
2023/10/31 06:50:36;;;;;;;11.65;4.95;;;;;;;15.78;57.75;97999.25;4498051;31;34187;-88
2023/10/31 06:53:04;;;;;;;8.48;4.32;;;;;;;15.88;59.14;98012.94;4497541;31;33673;-88
2023/10/31 06:55:31;;;;;;;10.95;4.95;;;;;;;15.97;58.26;98010.91;4496825;31;33821;-88
2023/10/31 06:57:59;;;;;;;9.75;4.82;;;;;;;15.88;61.31;98036.44;4498247;31;34593;-87
2023/10/31 07:00:27;;;;;;;10.35;5.10;;;;;;;15.86;61.54;98025.16;4496722;31;33344;-88
2023/10/31 07:02:54;;;;;;;11.48;5.65;;;;;;;15.98;60.16;98022.22;4484855;31;33252;-89
2023/10/31 07:05:22;;;;;;;9.73;5.03;;;;;;;15.97;60.48;98015.28;4497218;31;34935;-87
2023/10/31 07:07:50;;;;;;;11.35;6.10;;;;;;;15.97;61.77;98010.91;4498225;31;34808;-88
2023/10/31 07:10:18;;;;;;;9.30;5.57;;;;;;;16.10;60.72;98019.28;4496435;31;33939;-88
2023/10/31 07:12:46;;;;;;;9.50;4.57;;;;;;;16.18;59.04;98013.84;4497638;31;33929;-88
2023/10/31 07:15:13;;;;;;;9.13;4.43;;;;;;;16.09;58.30;98021.94;4497710;31;34568;-87
2023/10/31 07:17:41;;;;;;;8.13;4.20;;;;;;;16.24;57.62;98014.50;4497511;31;33806;-89
2023/10/31 07:20:09;;;;;;;7.70;4.30;;;;;;;16.21;59.87;98013.72;4497481;31;33096;-88
2023/10/31 07:22:36;;;;;;;9.75;4.87;;;;;;;16.30;59.71;98024.81;4498043;31;34693;-88
2023/10/31 07:25:04;;;;;;;9.45;4.37;;;;;;;16.46;57.64;98019.97;4498035;31;33587;-86
2023/10/31 07:27:31;;;;;;;9.40;6.20;;;;;;;16.43;56.16;98019.22;4493880;31;34262;-87
2023/10/31 07:29:59;;;;;;;9.55;4.55;;;;;;;16.32;56.63;98014.28;4492088;31;33841;-89
2023/10/31 07:32:26;;;;;;;7.22;4.50;;;;;;;16.41;55.36;98003.56;4482696;31;32992;-88
2023/10/31 07:34:54;;;;;;;9.82;4.80;;;;;;;16.39;56.76;98000.12;4496952;31;34668;-90
2023/10/31 07:37:22;;;;;;;9.00;4.10;;;;;;;16.36;55.64;98012.44;4497617;31;33439;-88
2023/10/31 07:39:52;;;;;;;7.32;4.25;;;;;;;16.24;55.51;98014.50;4489931;31;31794;-87
2023/10/31 07:42:22;;;;;;;8.50;3.58;;;;;;;16.48;55.55;98012.97;4498293;31;33980;-88
2023/10/31 07:44:50;;;;;;;8.30;3.87;;;;;;;16.44;55.59;98013.06;4492132;31;34835;-89
2023/10/31 07:47:19;;;;;;;9.50;3.42;;;;;;;16.13;55.07;98010.47;4492939;31;33656;-90
2023/10/31 07:49:48;;;;;;;7.05;3.12;;;;;;;16.30;55.56;97998.66;4487091;31;33460;-91
2023/10/31 07:52:15;;;;;;;8.35;3.45;;;;;;;16.34;55.78;97990.72;4491638;31;34822;-89
2023/10/31 07:54:43;;;;;;;7.22;2.97;;;;;;;16.46;55.32;97985.97;4496870;31;34018;-89
2023/10/31 07:57:10;;;;;;;7.82;3.40;;;;;;;16.66;54.24;97984.50;4487466;31;33670;-91
2023/10/31 07:59:38;;;;;;;9.07;3.80;;;;;;;16.62;54.82;97993.34;4496357;31;34205;-87
2023/10/31 08:02:06;;;;;;;6.20;3.05;;;;;;;16.69;54.90;97981.81;4489998;31;33785;-88
2023/10/31 08:04:34;;;;;;;7.57;3.50;;;;;;;16.69;54.69;97974.81;4497309;31;34009;-87
2023/10/31 08:07:01;;;;;;;10.70;3.47;;;;;;;16.87;54.17;97976.03;4498918;31;33930;-89
2023/10/31 08:09:29;;;;;;;9.23;3.53;;;;;;;16.72;54.47;97966.00;4482700;31;33353;-89
2023/10/31 08:11:57;;;;;;;9.05;3.53;;;;;;;16.69;55.08;97984.41;4484762;31;33847;-89
2023/10/31 08:14:24;;;;;;;7.57;3.40;;;;;;;16.90;54.19;97973.31;4498558;31;35438;-89
2023/10/31 08:16:53;;;;;;;6.70;3.33;;;;;;;16.73;54.77;97975.56;4498036;31;33683;-88
2023/10/31 08:19:21;;;;;;;7.87;3.25;;;;;;;16.74;54.48;97978.19;4497647;31;34252;-88
2023/10/31 08:21:48;;;;;;;9.35;3.40;;;;;;;17.01;53.72;97979.06;4498485;31;33566;-87
2023/10/31 08:24:15;;;;;;;8.10;2.90;;;;;;;16.97;54.33;97980.09;4497276;31;33615;-86
2023/10/31 08:26:43;;;;;;;6.35;2.87;;;;;;;16.91;55.08;97974.19;4483027;31;33467;-88
2023/10/31 08:29:11;;;;;;;6.60;3.10;;;;;;;16.90;54.40;97968.09;4497721;31;33335;-90
2023/10/31 08:31:38;;;;;;;8.15;2.95;;;;;;;16.93;53.69;97972.34;4496919;31;33388;-90
2023/10/31 08:34:06;;;;;;;9.77;3.53;;;;;;;16.99;53.45;97965.16;4498090;31;34031;-87
2023/10/31 08:36:33;;;;;;;6.80;3.10;;;;;;;16.99;53.35;97959.94;4496772;31;33599;-87
2023/10/31 08:39:01;;;;;;;6.82;2.40;;;;;;;17.22;53.82;97963.56;4498460;31;33070;-86
2023/10/31 08:41:28;;;;;;;8.50;3.10;;;;;;;17.44;52.70;97959.31;4497333;31;34682;-88
2023/10/31 08:43:58;;;;;;;7.57;3.17;;;;;;;17.33;52.91;97948.34;4485046;31;33766;-89
2023/10/31 08:46:25;;;;;;;7.12;3.12;;;;;;;17.35;53.38;97953.50;4492718;31;33924;-89
2023/10/31 08:48:56;;;;;;;8.32;3.15;;;;;;;17.57;52.76;97945.78;4479070;32;33371;-92
2023/10/31 08:51:23;;;;;;;7.45;2.80;;;;;;;17.55;52.55;97958.09;4480109;31;33990;-88
2023/10/31 08:53:51;;;;;;;6.75;3.20;;;;;;;17.71;51.92;97943.53;4494950;31;34515;-90
2023/10/31 08:56:19;;;;;;;8.63;3.05;;;;;;;17.64;51.50;97944.66;4498140;31;33583;-88
2023/10/31 08:58:46;;;;;;;7.03;2.87;;;;;;;17.52;52.49;97946.78;4493734;31;34066;-88
2023/10/31 09:01:14;;;;;;;11.68;3.10;;;;;;;17.67;50.80;97928.81;4499306;31;33944;-88
2023/10/31 09:03:42;;;;;;;6.50;3.00;;;;;;;17.86;51.39;97919.41;4497836;31;33852;-87
2023/10/31 09:06:09;;;;;;;9.38;3.10;;;;;;;17.79;51.34;97917.94;4493663;31;34570;-85
2023/10/31 09:08:38;;;;;;;7.55;3.00;;;;;;;17.88;50.54;97919.34;4499034;31;33049;-87
2023/10/31 09:11:06;;;;;;;8.73;2.97;;;;;;;17.89;50.26;97924.56;4500010;31;34054;-87
2023/10/31 09:13:42;;;;;;;7.57;2.78;;;;;;;18.11;50.00;97936.88;4497260;31;34426;-86
2023/10/31 09:16:13;;;;;;;7.53;2.65;;;;;;;17.95;50.26;97934.81;4492316;31;33553;-86
2023/10/31 09:18:43;;;;;;;6.47;3.22;;;;;;;18.16;50.26;97930.53;4495924;31;33209;-85
2023/10/31 09:21:10;;;;;;;15.80;2.80;;;;;;;18.21;49.02;97927.75;4499510;31;33546;-86
2023/10/31 09:23:38;;;;;;;10.52;2.87;;;;;;;18.01;49.95;97915.38;4499426;31;35184;-85
2023/10/31 09:26:05;;;;;;;5.82;2.55;;;;;;;18.12;49.93;97914.97;4499655;31;34000;-84
2023/10/31 09:28:36;;;;;;;9.80;3.00;;;;;;;18.29;48.62;97911.72;4495720;31;33007;-84
2023/10/31 09:31:04;;;;;;;6.32;2.72;;;;;;;18.11;49.22;97901.03;4491610;31;36317;-85
2023/10/31 09:33:32;;;;;;;8.52;2.92;;;;;;;18.48;48.53;97897.81;4491107;31;34011;-87
2023/10/31 09:35:59;;;;;;;6.62;2.60;;;;;;;18.56;48.35;97884.41;4486761;31;34553;-84
2023/10/31 09:38:27;;;;;;;6.60;2.83;;;;;;;18.54;48.24;97880.13;4496100;31;33362;-85
2023/10/31 09:40:55;;;;;;;5.80;2.50;;;;;;;18.43;48.08;97883.16;4499585;31;33655;-85
2023/10/31 09:43:22;;;;;;;7.62;2.70;;;;;;;18.53;48.04;97883.69;4498671;31;34779;-86
2023/10/31 09:45:51;;;;;;;7.10;2.60;;;;;;;18.53;48.68;97873.19;4495990;31;33743;-86
2023/10/31 09:48:22;;;;;;;6.47;2.75;;;;;;;18.70;48.14;97879.47;4472026;31;34152;-86
2023/10/31 09:50:50;;;;;;;7.90;2.87;;;;;;;18.89;47.21;97873.47;4499034;31;34791;-85
2023/10/31 09:53:17;;;;;;;8.80;2.85;;;;;;;18.80;47.49;97873.84;4498573;31;34134;-87
2023/10/31 09:55:48;;;;;;;6.70;2.45;;;;;;;18.58;47.70;97868.59;4469420;32;33813;-87
2023/10/31 09:58:16;;;;;;;9.30;3.33;;;;;;;18.96;48.56;97867.03;4496783;31;33949;-85
2023/10/31 10:00:44;;;;;;;6.18;2.40;;;;;;;18.99;47.51;97866.91;4488168;31;34534;-85
2023/10/31 10:03:12;;;;;;;5.95;2.53;;;;;;;18.91;47.50;97851.47;4488165;31;33665;-86
2023/10/31 10:05:40;;;;;;;8.02;2.58;;;;;;;18.88;47.96;97838.47;4496451;31;34173;-86
2023/10/31 10:08:07;;;;;;;7.43;2.47;;;;;;;19.10;47.27;97827.06;4480631;32;33851;-84
2023/10/31 10:10:35;;;;;;;6.72;2.65;;;;;;;19.12;47.37;97825.22;4483687;32;33937;-85
2023/10/31 10:13:03;;;;;;;10.70;2.50;;;;;;;19.07;46.69;97812.28;4481360;31;33824;-84
2023/10/31 10:15:43;;;;;;;6.50;2.75;;;;;;;19.02;47.10;97805.53;4483399;32;34384;-84
2023/10/31 10:18:14;;;;;;;8.48;2.42;;;;;;;19.24;47.05;97798.41;4491026;31;33398;-86
2023/10/31 10:21:16;;;;;;;7.10;2.40;;;;;;;19.09;46.54;97793.81;4497110;31;33760;-86
2023/10/31 10:23:48;;;;;;;8.35;2.87;;;;;;;19.45;46.20;97770.31;4457569;31;33068;-87
2023/10/31 10:26:16;;;;;;;11.15;3.03;;;;;;;19.20;46.67;97767.94;4496402;31;33832;-87
2023/10/31 10:28:47;;;;;;;5.57;2.55;;;;;;;19.43;45.79;97759.91;4492800;31;33555;-87
2023/10/31 10:31:15;;;;;;;8.20;2.65;;;;;;;19.35;46.56;97753.25;4498617;31;34370;-85
2023/10/31 10:33:42;;;;;;;6.90;2.22;;;;;;;19.42;45.43;97749.44;4499125;31;34008;-86
2023/10/31 10:36:10;;;;;;;9.00;2.33;;;;;;;19.55;45.96;97739.22;4496348;31;33614;-86
2023/10/31 10:38:39;;;;;;;8.32;2.83;;;;;;;19.58;45.82;97739.06;4486666;31;33774;-87
2023/10/31 10:41:07;;;;;;;7.32;2.20;;;;;;;19.90;45.25;97735.81;4494863;31;34293;-85
2023/10/31 10:43:37;;;;;;;6.15;2.62;;;;;;;19.76;46.26;97738.25;4484016;31;33998;-86
2023/10/31 10:46:05;;;;;;;11.88;2.87;;;;;;;19.93;45.77;97740.09;4497661;31;34143;-85
2023/10/31 10:48:35;;;;;;;6.80;2.40;;;;;;;19.76;44.95;97732.97;4490109;31;33788;-84
2023/10/31 10:51:22;;;;;;;9.13;2.62;;;;;;;19.85;45.24;97732.56;4494441;31;33832;-86
2023/10/31 10:53:52;;;;;;;5.25;2.25;;;;;;;19.87;44.96;97714.06;4481213;31;35142;-86
2023/10/31 10:56:26;;;;;;;7.12;2.28;;;;;;;19.37;44.74;97710.22;4495533;31;34763;-85
2023/10/31 10:59:03;;;;;;;5.85;2.10;;;;;;;19.51;44.74;97716.59;4480184;31;32569;-84
2023/10/31 11:01:31;;;;;;;7.20;2.50;;;;;;;19.64;44.83;97712.53;4491738;31;34731;-85
2023/10/31 11:03:59;;;;;;;5.18;2.00;;;;;;;19.55;44.15;97707.69;4496445;31;33390;-87
2023/10/31 11:06:27;;;;;;;7.75;2.55;;;;;;;19.65;44.64;97683.53;4482841;31;34636;-85
2023/10/31 11:08:55;;;;;;;5.80;2.10;;;;;;;19.92;43.57;97681.34;4491682;31;32976;-85
2023/10/31 11:11:23;;;;;;;6.70;2.53;;;;;;;19.65;44.04;97672.16;4482997;31;34529;-88
2023/10/31 11:13:51;;;;;;;7.10;2.45;;;;;;;19.60;45.27;97679.38;4483584;31;34211;-84
2023/10/31 11:16:43;;;;;;;8.80;2.10;;;;;;;19.73;44.59;97706.81;4484547;31;34597;-86
2023/10/31 11:19:11;;;;;;;6.15;2.05;;;;;;;19.52;44.08;97723.59;4479421;31;33456;-86
2023/10/31 11:21:53;;;;;;;9.30;2.80;;;;;;;19.63;44.98;97731.88;4452808;31;33356;-84
2023/10/31 11:24:23;;;;;;;7.65;2.60;;;;;;;19.76;43.95;97721.59;4483717;31;33618;-86
2023/10/31 11:26:52;;;;;;;6.72;2.30;;;;;;;19.61;46.10;97710.00;4470778;31;33121;-86
2023/10/31 11:29:20;;;;;;;8.82;2.40;;;;;;;19.60;51.06;97696.00;4488086;31;34078;-86
2023/10/31 11:31:48;;;;;;;11.18;2.47;;;;;;;19.50;55.22;97681.59;4497053;31;33756;-91
2023/10/31 11:34:28;;;;;;;6.57;2.47;;;;;;;19.61;54.73;97660.06;4485544;31;34071;-91